sensor_id;sensor_type;location;lat;lon;timestamp;temperature;humidity
47861;HTU21D;33620;52.340;5.984;2023-11-21T00:01:44;8.95;95.30
47861;HTU21D;33620;52.340;5.984;2023-11-21T00:04:09;8.95;95.25
47861;HTU21D;33620;52.340;5.984;2023-11-21T00:06:35;8.93;95.12
47861;HTU21D;33620;52.340;5.984;2023-11-21T00:09:00;8.92;94.97
47861;HTU21D;33620;52.340;5.984;2023-11-21T00:11:25;8.90;94.75
47861;HTU21D;33620;52.340;5.984;2023-11-21T00:13:51;8.86;94.59
47861;HTU21D;33620;52.340;5.984;2023-11-21T00:16:17;8.86;94.35
47861;HTU21D;33620;52.340;5.984;2023-11-21T00:18:42;8.83;94.33
47861;HTU21D;33620;52.340;5.984;2023-11-21T00:21:08;8.82;93.96
47861;HTU21D;33620;52.340;5.984;2023-11-21T00:23:34;8.80;93.79
47861;HTU21D;33620;52.340;5.984;2023-11-21T00:25:59;8.78;93.70
47861;HTU21D;33620;52.340;5.984;2023-11-21T00:28:25;8.76;93.49
47861;HTU21D;33620;52.340;5.984;2023-11-21T00:30:51;8.73;93.38
47861;HTU21D;33620;52.340;5.984;2023-11-21T00:33:16;8.73;93.30
47861;HTU21D;33620;52.340;5.984;2023-11-21T00:35:41;8.73;93.12
47861;HTU21D;33620;52.340;5.984;2023-11-21T00:38:07;8.72;93.10
47861;HTU21D;33620;52.340;5.984;2023-11-21T00:40:33;8.68;92.95
47861;HTU21D;33620;52.340;5.984;2023-11-21T00:42:59;8.68;92.81
47861;HTU21D;33620;52.340;5.984;2023-11-21T00:45:24;8.62;92.70
47861;HTU21D;33620;52.340;5.984;2023-11-21T00:47:50;8.58;92.82
47861;HTU21D;33620;52.340;5.984;2023-11-21T00:50:15;8.56;92.88
47861;HTU21D;33620;52.340;5.984;2023-11-21T00:52:41;8.53;93.01
47861;HTU21D;33620;52.340;5.984;2023-11-21T00:55:06;8.51;93.18
47861;HTU21D;33620;52.340;5.984;2023-11-21T00:57:33;8.53;93.31
47861;HTU21D;33620;52.340;5.984;2023-11-21T00:59:58;8.52;93.30
47861;HTU21D;33620;52.340;5.984;2023-11-21T01:02:23;8.50;93.30
47861;HTU21D;33620;52.340;5.984;2023-11-21T01:04:50;8.48;93.39
47861;HTU21D;33620;52.340;5.984;2023-11-21T01:07:15;8.49;93.50
47861;HTU21D;33620;52.340;5.984;2023-11-21T01:09:41;8.48;93.59
47861;HTU21D;33620;52.340;5.984;2023-11-21T01:12:06;8.48;93.75
47861;HTU21D;33620;52.340;5.984;2023-11-21T01:14:32;8.49;93.88
47861;HTU21D;33620;52.340;5.984;2023-11-21T01:16:57;8.49;94.00
47861;HTU21D;33620;52.340;5.984;2023-11-21T01:19:22;8.50;94.18
47861;HTU21D;33620;52.340;5.984;2023-11-21T01:21:48;8.52;94.25
47861;HTU21D;33620;52.340;5.984;2023-11-21T01:24:13;8.53;94.30
47861;HTU21D;33620;52.340;5.984;2023-11-21T01:26:38;8.56;94.46
47861;HTU21D;33620;52.340;5.984;2023-11-21T01:29:04;8.56;94.56
47861;HTU21D;33620;52.340;5.984;2023-11-21T01:31:29;8.57;94.64
47861;HTU21D;33620;52.340;5.984;2023-11-21T01:33:55;8.59;94.73
47861;HTU21D;33620;52.340;5.984;2023-11-21T01:36:21;8.61;94.75
47861;HTU21D;33620;52.340;5.984;2023-11-21T01:38:47;8.62;94.85
47861;HTU21D;33620;52.340;5.984;2023-11-21T01:41:14;8.62;94.85
47861;HTU21D;33620;52.340;5.984;2023-11-21T01:43:41;8.62;94.90
47861;HTU21D;33620;52.340;5.984;2023-11-21T01:46:06;8.63;94.97
47861;HTU21D;33620;52.340;5.984;2023-11-21T01:48:33;8.64;95.04
47861;HTU21D;33620;52.340;5.984;2023-11-21T01:50:59;8.66;95.16
47861;HTU21D;33620;52.340;5.984;2023-11-21T01:53:25;8.70;95.28
47861;HTU21D;33620;52.340;5.984;2023-11-21T01:55:51;8.75;95.34
47861;HTU21D;33620;52.340;5.984;2023-11-21T01:58:17;8.79;95.25
47861;HTU21D;33620;52.340;5.984;2023-11-21T02:00:43;8.82;95.17
47861;HTU21D;33620;52.340;5.984;2023-11-21T02:03:08;8.82;94.93
47861;HTU21D;33620;52.340;5.984;2023-11-21T02:05:35;8.82;94.90
47861;HTU21D;33620;52.340;5.984;2023-11-21T02:08:01;8.81;94.72
47861;HTU21D;33620;52.340;5.984;2023-11-21T02:10:28;8.78;94.70
47861;HTU21D;33620;52.340;5.984;2023-11-21T02:12:54;8.78;94.69
47861;HTU21D;33620;52.340;5.984;2023-11-21T02:15:21;8.77;94.62
47861;HTU21D;33620;52.340;5.984;2023-11-21T02:17:49;8.76;94.69
47861;HTU21D;33620;52.340;5.984;2023-11-21T02:20:17;8.73;94.57
47861;HTU21D;33620;52.340;5.984;2023-11-21T02:22:53;8.72;94.59
47861;HTU21D;33620;52.340;5.984;2023-11-21T02:25:29;8.71;94.74
47861;HTU21D;33620;52.340;5.984;2023-11-21T02:28:04;8.68;94.76
47861;HTU21D;33620;52.340;5.984;2023-11-21T02:30:30;8.68;94.94
47861;HTU21D;33620;52.340;5.984;2023-11-21T02:32:58;8.70;95.07
47861;HTU21D;33620;52.340;5.984;2023-11-21T02:35:24;8.68;95.07
47861;HTU21D;33620;52.340;5.984;2023-11-21T02:37:51;8.72;95.25
47861;HTU21D;33620;52.340;5.984;2023-11-21T02:40:17;8.75;95.30
47861;HTU21D;33620;52.340;5.984;2023-11-21T02:42:46;8.77;95.26
47861;HTU21D;33620;52.340;5.984;2023-11-21T02:45:13;8.78;95.30
47861;HTU21D;33620;52.340;5.984;2023-11-21T02:47:42;8.78;95.33
47861;HTU21D;33620;52.340;5.984;2023-11-21T02:50:07;8.77;95.27
47861;HTU21D;33620;52.340;5.984;2023-11-21T02:52:34;8.75;95.34
47861;HTU21D;33620;52.340;5.984;2023-11-21T02:55:01;8.72;95.58
47861;HTU21D;33620;52.340;5.984;2023-11-21T02:57:26;8.70;95.84
47861;HTU21D;33620;52.340;5.984;2023-11-21T02:59:51;8.72;96.10
47861;HTU21D;33620;52.340;5.984;2023-11-21T03:02:17;8.77;96.25
47861;HTU21D;33620;52.340;5.984;2023-11-21T03:04:42;8.81;96.39
47861;HTU21D;33620;52.340;5.984;2023-11-21T03:07:08;8.85;96.40
47861;HTU21D;33620;52.340;5.984;2023-11-21T03:09:35;8.86;96.30
47861;HTU21D;33620;52.340;5.984;2023-11-21T03:12:00;8.89;96.35
47861;HTU21D;33620;52.340;5.984;2023-11-21T03:14:25;8.87;96.33
47861;HTU21D;33620;52.340;5.984;2023-11-21T03:16:51;8.88;96.38
47861;HTU21D;33620;52.340;5.984;2023-11-21T03:19:16;8.89;96.46
47861;HTU21D;33620;52.340;5.984;2023-11-21T03:21:42;8.89;96.50
47861;HTU21D;33620;52.340;5.984;2023-11-21T03:24:07;8.90;96.53
47861;HTU21D;33620;52.340;5.984;2023-11-21T03:26:33;8.92;96.57
47861;HTU21D;33620;52.340;5.984;2023-11-21T03:28:58;8.93;96.65
47861;HTU21D;33620;52.340;5.984;2023-11-21T03:31:24;8.96;96.75
47861;HTU21D;33620;52.340;5.984;2023-11-21T03:33:49;9.01;96.74
47861;HTU21D;33620;52.340;5.984;2023-11-21T03:36:14;9.03;96.72
47861;HTU21D;33620;52.340;5.984;2023-11-21T03:38:40;9.05;96.72
47861;HTU21D;33620;52.340;5.984;2023-11-21T03:41:07;9.08;96.62
47861;HTU21D;33620;52.340;5.984;2023-11-21T03:43:32;9.09;96.58
47861;HTU21D;33620;52.340;5.984;2023-11-21T03:45:58;9.11;96.55
47861;HTU21D;33620;52.340;5.984;2023-11-21T03:48:23;9.12;96.51
47861;HTU21D;33620;52.340;5.984;2023-11-21T03:50:48;9.15;96.46
47861;HTU21D;33620;52.340;5.984;2023-11-21T03:53:14;9.15;96.46
47861;HTU21D;33620;52.340;5.984;2023-11-21T03:55:39;9.16;96.51
47861;HTU21D;33620;52.340;5.984;2023-11-21T03:58:05;9.16;96.49
47861;HTU21D;33620;52.340;5.984;2023-11-21T04:00:30;9.15;96.50
47861;HTU21D;33620;52.340;5.984;2023-11-21T04:02:55;9.17;96.55
47861;HTU21D;33620;52.340;5.984;2023-11-21T04:05:21;9.18;96.52
47861;HTU21D;33620;52.340;5.984;2023-11-21T04:07:50;9.18;96.55
47861;HTU21D;33620;52.340;5.984;2023-11-21T04:10:18;9.20;96.67
47861;HTU21D;33620;52.340;5.984;2023-11-21T04:12:44;9.21;96.70
47861;HTU21D;33620;52.340;5.984;2023-11-21T04:15:10;9.23;96.67
47861;HTU21D;33620;52.340;5.984;2023-11-21T04:17:36;9.23;96.68
47861;HTU21D;33620;52.340;5.984;2023-11-21T04:20:03;9.26;96.79
47861;HTU21D;33620;52.340;5.984;2023-11-21T04:22:33;9.29;96.76
47861;HTU21D;33620;52.340;5.984;2023-11-21T04:24:58;9.31;96.71
47861;HTU21D;33620;52.340;5.984;2023-11-21T04:27:24;9.34;96.78
47861;HTU21D;33620;52.340;5.984;2023-11-21T04:29:49;9.38;96.79
47861;HTU21D;33620;52.340;5.984;2023-11-21T04:32:14;9.40;96.65
47861;HTU21D;33620;52.340;5.984;2023-11-21T04:34:40;9.42;96.60
47861;HTU21D;33620;52.340;5.984;2023-11-21T04:37:05;9.39;96.51
47861;HTU21D;33620;52.340;5.984;2023-11-21T04:39:31;9.37;96.48
47861;HTU21D;33620;52.340;5.984;2023-11-21T04:41:57;9.36;96.55
47861;HTU21D;33620;52.340;5.984;2023-11-21T04:44:22;9.37;96.62
47861;HTU21D;33620;52.340;5.984;2023-11-21T04:46:47;9.36;96.66
47861;HTU21D;33620;52.340;5.984;2023-11-21T04:49:14;9.35;96.68
47861;HTU21D;33620;52.340;5.984;2023-11-21T04:51:39;9.32;96.72
47861;HTU21D;33620;52.340;5.984;2023-11-21T04:54:04;9.33;96.90
47861;HTU21D;33620;52.340;5.984;2023-11-21T04:56:31;9.35;96.97
47861;HTU21D;33620;52.340;5.984;2023-11-21T04:58:56;9.34;96.87
47861;HTU21D;33620;52.340;5.984;2023-11-21T05:01:21;9.34;96.92
47861;HTU21D;33620;52.340;5.984;2023-11-21T05:03:47;9.33;96.92
47861;HTU21D;33620;52.340;5.984;2023-11-21T05:06:12;9.32;96.93
47861;HTU21D;33620;52.340;5.984;2023-11-21T05:08:39;9.31;97.00
47861;HTU21D;33620;52.340;5.984;2023-11-21T05:11:04;9.27;97.10
47861;HTU21D;33620;52.340;5.984;2023-11-21T05:13:33;9.26;97.27
47861;HTU21D;33620;52.340;5.984;2023-11-21T05:15:59;9.25;97.33
47861;HTU21D;33620;52.340;5.984;2023-11-21T05:18:24;9.24;97.37
47861;HTU21D;33620;52.340;5.984;2023-11-21T05:20:52;9.22;97.49
47861;HTU21D;33620;52.340;5.984;2023-11-21T05:23:18;9.19;97.67
47861;HTU21D;33620;52.340;5.984;2023-11-21T05:25:44;9.17;97.94
47861;HTU21D;33620;52.340;5.984;2023-11-21T05:28:11;9.18;98.09
47861;HTU21D;33620;52.340;5.984;2023-11-21T05:30:36;9.21;98.16
47861;HTU21D;33620;52.340;5.984;2023-11-21T05:33:03;9.23;98.19
47861;HTU21D;33620;52.340;5.984;2023-11-21T05:35:29;9.25;98.19
47861;HTU21D;33620;52.340;5.984;2023-11-21T05:37:54;9.25;98.26
47861;HTU21D;33620;52.340;5.984;2023-11-21T05:40:19;9.31;98.29
47861;HTU21D;33620;52.340;5.984;2023-11-21T05:42:47;9.31;98.29
47861;HTU21D;33620;52.340;5.984;2023-11-21T05:45:13;9.32;98.16
47861;HTU21D;33620;52.340;5.984;2023-11-21T05:47:41;9.31;98.26
47861;HTU21D;33620;52.340;5.984;2023-11-21T05:50:08;9.33;98.24
47861;HTU21D;33620;52.340;5.984;2023-11-21T05:52:41;9.35;98.20
47861;HTU21D;33620;52.340;5.984;2023-11-21T05:55:07;9.36;98.32
47861;HTU21D;33620;52.340;5.984;2023-11-21T05:57:40;9.39;98.39
47861;HTU21D;33620;52.340;5.984;2023-11-21T06:00:10;9.42;98.34
47861;HTU21D;33620;52.340;5.984;2023-11-21T06:02:51;9.42;98.18
47861;HTU21D;33620;52.340;5.984;2023-11-21T06:05:19;9.45;98.29
47861;HTU21D;33620;52.340;5.984;2023-11-21T06:07:44;9.47;98.27
47861;HTU21D;33620;52.340;5.984;2023-11-21T06:10:11;9.52;98.28
47861;HTU21D;33620;52.340;5.984;2023-11-21T06:12:40;9.54;98.26
47861;HTU21D;33620;52.340;5.984;2023-11-21T06:15:08;9.57;98.16
47861;HTU21D;33620;52.340;5.984;2023-11-21T06:17:35;9.57;98.13
47861;HTU21D;33620;52.340;5.984;2023-11-21T06:20:08;9.62;98.11
47861;HTU21D;33620;52.340;5.984;2023-11-21T06:22:44;9.61;97.99
47861;HTU21D;33620;52.340;5.984;2023-11-21T06:25:10;9.65;97.97
47861;HTU21D;33620;52.340;5.984;2023-11-21T06:27:42;9.67;97.95
47861;HTU21D;33620;52.340;5.984;2023-11-21T06:30:08;9.68;97.92
47861;HTU21D;33620;52.340;5.984;2023-11-21T06:32:38;9.71;97.90
47861;HTU21D;33620;52.340;5.984;2023-11-21T06:35:04;9.71;97.70
47861;HTU21D;33620;52.340;5.984;2023-11-21T06:37:30;9.70;97.64
47861;HTU21D;33620;52.340;5.984;2023-11-21T06:39:56;9.71;97.61
47861;HTU21D;33620;52.340;5.984;2023-11-21T06:42:23;9.72;97.58
47861;HTU21D;33620;52.340;5.984;2023-11-21T06:44:49;9.74;97.49
47861;HTU21D;33620;52.340;5.984;2023-11-21T06:47:17;9.76;97.41
47861;HTU21D;33620;52.340;5.984;2023-11-21T06:49:42;9.76;97.45
47861;HTU21D;33620;52.340;5.984;2023-11-21T06:52:08;9.78;97.41
47861;HTU21D;33620;52.340;5.984;2023-11-21T06:54:34;9.77;97.20
47861;HTU21D;33620;52.340;5.984;2023-11-21T06:57:00;9.75;97.25
47861;HTU21D;33620;52.340;5.984;2023-11-21T06:59:25;9.76;97.27
47861;HTU21D;33620;52.340;5.984;2023-11-21T07:01:51;9.76;97.32
47861;HTU21D;33620;52.340;5.984;2023-11-21T07:04:16;9.75;97.27
47861;HTU21D;33620;52.340;5.984;2023-11-21T07:06:42;9.76;97.19
47861;HTU21D;33620;52.340;5.984;2023-11-21T07:09:08;9.78;97.21
47861;HTU21D;33620;52.340;5.984;2023-11-21T07:11:35;9.79;97.21
47861;HTU21D;33620;52.340;5.984;2023-11-21T07:14:00;9.80;97.13
47861;HTU21D;33620;52.340;5.984;2023-11-21T07:16:35;9.79;97.13
47861;HTU21D;33620;52.340;5.984;2023-11-21T07:19:05;9.80;97.15
47861;HTU21D;33620;52.340;5.984;2023-11-21T07:21:34;9.79;97.05
47861;HTU21D;33620;52.340;5.984;2023-11-21T07:24:01;9.77;96.97
47861;HTU21D;33620;52.340;5.984;2023-11-21T07:26:27;9.77;97.13
47861;HTU21D;33620;52.340;5.984;2023-11-21T07:28:53;9.80;97.22
47861;HTU21D;33620;52.340;5.984;2023-11-21T07:31:19;9.80;97.20
47861;HTU21D;33620;52.340;5.984;2023-11-21T07:33:47;9.82;97.19
47861;HTU21D;33620;52.340;5.984;2023-11-21T07:36:13;9.84;97.11
47861;HTU21D;33620;52.340;5.984;2023-11-21T07:38:39;9.84;97.12
47861;HTU21D;33620;52.340;5.984;2023-11-21T07:41:05;9.85;97.19
47861;HTU21D;33620;52.340;5.984;2023-11-21T07:43:31;9.88;97.17
47861;HTU21D;33620;52.340;5.984;2023-11-21T07:46:01;9.89;97.16
47861;HTU21D;33620;52.340;5.984;2023-11-21T07:48:28;9.86;97.11
47861;HTU21D;33620;52.340;5.984;2023-11-21T07:50:53;9.83;97.07
47861;HTU21D;33620;52.340;5.984;2023-11-21T07:53:19;9.82;97.21
47861;HTU21D;33620;52.340;5.984;2023-11-21T07:55:44;9.80;97.34
47861;HTU21D;33620;52.340;5.984;2023-11-21T07:58:12;9.80;97.55
47861;HTU21D;33620;52.340;5.984;2023-11-21T08:00:38;9.82;97.57
47861;HTU21D;33620;52.340;5.984;2023-11-21T08:03:04;9.83;97.61
47861;HTU21D;33620;52.340;5.984;2023-11-21T08:05:31;9.88;97.65
47861;HTU21D;33620;52.340;5.984;2023-11-21T08:07:56;9.90;97.71
47861;HTU21D;33620;52.340;5.984;2023-11-21T08:10:21;9.91;97.56
47861;HTU21D;33620;52.340;5.984;2023-11-21T08:12:47;9.89;97.67
47861;HTU21D;33620;52.340;5.984;2023-11-21T08:15:13;9.90;97.71
47861;HTU21D;33620;52.340;5.984;2023-11-21T08:17:39;9.90;97.68
47861;HTU21D;33620;52.340;5.984;2023-11-21T08:20:05;9.91;97.66
47861;HTU21D;33620;52.340;5.984;2023-11-21T08:22:32;9.90;97.77
47861;HTU21D;33620;52.340;5.984;2023-11-21T08:24:57;9.90;97.85
47861;HTU21D;33620;52.340;5.984;2023-11-21T08:27:23;9.92;97.87
47861;HTU21D;33620;52.340;5.984;2023-11-21T08:29:48;9.94;97.99
47861;HTU21D;33620;52.340;5.984;2023-11-21T08:32:14;9.96;97.99
47861;HTU21D;33620;52.340;5.984;2023-11-21T08:34:40;10.00;97.97
47861;HTU21D;33620;52.340;5.984;2023-11-21T08:37:08;10.01;97.87
47861;HTU21D;33620;52.340;5.984;2023-11-21T08:39:33;10.03;97.90
47861;HTU21D;33620;52.340;5.984;2023-11-21T08:41:58;10.05;97.97
47861;HTU21D;33620;52.340;5.984;2023-11-21T08:44:24;10.04;97.90
47861;HTU21D;33620;52.340;5.984;2023-11-21T08:46:50;10.05;97.94
47861;HTU21D;33620;52.340;5.984;2023-11-21T08:49:15;10.06;97.99
47861;HTU21D;33620;52.340;5.984;2023-11-21T08:51:41;10.08;97.97
47861;HTU21D;33620;52.340;5.984;2023-11-21T08:54:06;10.11;98.07
47861;HTU21D;33620;52.340;5.984;2023-11-21T08:56:34;10.14;98.06
47861;HTU21D;33620;52.340;5.984;2023-11-21T08:59:00;10.16;98.08
47861;HTU21D;33620;52.340;5.984;2023-11-21T09:01:28;10.16;97.99
47861;HTU21D;33620;52.340;5.984;2023-11-21T09:03:54;10.19;98.01
47861;HTU21D;33620;52.340;5.984;2023-11-21T09:06:19;10.21;98.01
47861;HTU21D;33620;52.340;5.984;2023-11-21T09:08:44;10.24;98.10
47861;HTU21D;33620;52.340;5.984;2023-11-21T09:11:10;10.26;98.13
47861;HTU21D;33620;52.340;5.984;2023-11-21T09:13:35;10.28;98.15
47861;HTU21D;33620;52.340;5.984;2023-11-21T09:16:02;10.26;98.02
47861;HTU21D;33620;52.340;5.984;2023-11-21T09:18:27;10.27;98.03
47861;HTU21D;33620;52.340;5.984;2023-11-21T09:20:52;10.22;97.91
47861;HTU21D;33620;52.340;5.984;2023-11-21T09:23:18;10.23;98.03
47861;HTU21D;33620;52.340;5.984;2023-11-21T09:25:43;10.19;98.03
47861;HTU21D;33620;52.340;5.984;2023-11-21T09:28:11;10.21;98.20
47861;HTU21D;33620;52.340;5.984;2023-11-21T09:30:37;10.21;98.30
47861;HTU21D;33620;52.340;5.984;2023-11-21T09:33:03;10.21;98.25
47861;HTU21D;33620;52.340;5.984;2023-11-21T09:35:33;10.24;98.40
47861;HTU21D;33620;52.340;5.984;2023-11-21T09:37:59;10.23;98.34
47861;HTU21D;33620;52.340;5.984;2023-11-21T09:40:26;10.24;98.33
47861;HTU21D;33620;52.340;5.984;2023-11-21T09:42:55;10.23;98.39
47861;HTU21D;33620;52.340;5.984;2023-11-21T09:45:26;10.24;98.37
47861;HTU21D;33620;52.340;5.984;2023-11-21T09:47:53;10.26;98.43
47861;HTU21D;33620;52.340;5.984;2023-11-21T09:50:21;10.25;98.35
47861;HTU21D;33620;52.340;5.984;2023-11-21T09:55:27;10.23;98.52
47861;HTU21D;33620;52.340;5.984;2023-11-21T09:57:56;10.23;98.53
47861;HTU21D;33620;52.340;5.984;2023-11-21T10:00:22;10.22;98.51
47861;HTU21D;33620;52.340;5.984;2023-11-21T10:02:52;10.21;98.61
47861;HTU21D;33620;52.340;5.984;2023-11-21T10:05:18;10.20;98.58
47861;HTU21D;33620;52.340;5.984;2023-11-21T10:07:45;10.22;98.71
47861;HTU21D;33620;52.340;5.984;2023-11-21T10:10:12;10.21;98.71
47861;HTU21D;33620;52.340;5.984;2023-11-21T10:12:38;10.21;98.74
47861;HTU21D;33620;52.340;5.984;2023-11-21T10:15:08;10.19;98.72
47861;HTU21D;33620;52.340;5.984;2023-11-21T10:17:36;10.19;98.64
47861;HTU21D;33620;52.340;5.984;2023-11-21T10:20:08;10.16;98.60
47861;HTU21D;33620;52.340;5.984;2023-11-21T10:22:42;10.13;98.56
47861;HTU21D;33620;52.340;5.984;2023-11-21T10:25:11;10.16;98.63
47861;HTU21D;33620;52.340;5.984;2023-11-21T10:27:40;10.20;98.69
47861;HTU21D;33620;52.340;5.984;2023-11-21T10:30:07;10.20;98.58
47861;HTU21D;33620;52.340;5.984;2023-11-21T10:32:33;10.20;98.55
47861;HTU21D;33620;52.340;5.984;2023-11-21T10:34:59;10.21;98.55
47861;HTU21D;33620;52.340;5.984;2023-11-21T10:37:25;10.20;98.44
47861;HTU21D;33620;52.340;5.984;2023-11-21T10:39:57;10.22;98.40
47861;HTU21D;33620;52.340;5.984;2023-11-21T10:42:23;10.22;98.29
47861;HTU21D;33620;52.340;5.984;2023-11-21T10:44:49;10.22;98.19
47861;HTU21D;33620;52.340;5.984;2023-11-21T10:47:16;10.25;98.21
47861;HTU21D;33620;52.340;5.984;2023-11-21T10:49:44;10.22;98.07
47861;HTU21D;33620;52.340;5.984;2023-11-21T10:52:10;10.23;97.98
47861;HTU21D;33620;52.340;5.984;2023-11-21T10:54:42;10.23;97.87
47861;HTU21D;33620;52.340;5.984;2023-11-21T10:57:08;10.24;97.83
47861;HTU21D;33620;52.340;5.984;2023-11-21T10:59:35;10.21;97.72
47861;HTU21D;33620;52.340;5.984;2023-11-21T11:02:02;10.23;97.84
47861;HTU21D;33620;52.340;5.984;2023-11-21T11:04:35;10.26;97.78
47861;HTU21D;33620;52.340;5.984;2023-11-21T11:07:03;10.26;97.70
47861;HTU21D;33620;52.340;5.984;2023-11-21T11:09:30;10.29;97.65
47861;HTU21D;33620;52.340;5.984;2023-11-21T11:11:57;10.27;97.37
47861;HTU21D;33620;52.340;5.984;2023-11-21T11:14:24;10.28;97.44
47861;HTU21D;33620;52.340;5.984;2023-11-21T11:16:53;10.31;97.49
47861;HTU21D;33620;52.340;5.984;2023-11-21T11:19:19;10.33;97.34
47861;HTU21D;33620;52.340;5.984;2023-11-21T11:22:09;10.31;97.24
47861;HTU21D;33620;52.340;5.984;2023-11-21T11:33:04;10.35;97.19
47861;HTU21D;33620;52.340;5.984;2023-11-21T11:35:51;10.38;97.19
47861;HTU21D;33620;52.340;5.984;2023-11-21T11:38:21;10.38;97.15
47861;HTU21D;33620;52.340;5.984;2023-11-21T11:40:47;10.40;97.28
47861;HTU21D;33620;52.340;5.984;2023-11-21T11:43:27;10.45;97.44
47861;HTU21D;33620;52.340;5.984;2023-11-21T11:45:56;10.49;97.33
47861;HTU21D;33620;52.340;5.984;2023-11-21T11:48:22;10.46;97.27
47861;HTU21D;33620;52.340;5.984;2023-11-21T11:51:10;10.48;97.29
47861;HTU21D;33620;52.340;5.984;2023-11-21T11:53:46;10.49;97.38
47861;HTU21D;33620;52.340;5.984;2023-11-21T11:56:31;10.51;97.38
47861;HTU21D;33620;52.340;5.984;2023-11-21T11:59:01;10.51;97.34
47861;HTU21D;33620;52.340;5.984;2023-11-21T12:01:28;10.52;97.33
47861;HTU21D;33620;52.340;5.984;2023-11-21T12:06:56;10.56;97.39
47861;HTU21D;33620;52.340;5.984;2023-11-21T12:09:24;10.56;97.27
47861;HTU21D;33620;52.340;5.984;2023-11-21T12:11:51;10.58;97.27
47861;HTU21D;33620;52.340;5.984;2023-11-21T12:14:17;10.56;97.21
47861;HTU21D;33620;52.340;5.984;2023-11-21T12:16:43;10.50;96.90
47861;HTU21D;33620;52.340;5.984;2023-11-21T12:19:12;10.45;96.94
47861;HTU21D;33620;52.340;5.984;2023-11-21T12:21:37;10.42;96.90
47861;HTU21D;33620;52.340;5.984;2023-11-21T12:24:03;10.36;96.85
47861;HTU21D;33620;52.340;5.984;2023-11-21T12:26:29;10.35;96.95
47861;HTU21D;33620;52.340;5.984;2023-11-21T12:28:54;10.30;96.78
47861;HTU21D;33620;52.340;5.984;2023-11-21T12:31:23;10.25;96.66
47861;HTU21D;33620;52.340;5.984;2023-11-21T12:33:49;10.22;96.70
47861;HTU21D;33620;52.340;5.984;2023-11-21T12:36:16;10.23;96.84
47861;HTU21D;33620;52.340;5.984;2023-11-21T12:38:42;10.19;96.87
47861;HTU21D;33620;52.340;5.984;2023-11-21T12:41:07;10.15;96.72
47861;HTU21D;33620;52.340;5.984;2023-11-21T12:43:33;10.16;96.86
47861;HTU21D;33620;52.340;5.984;2023-11-21T12:46:07;10.15;96.79
47861;HTU21D;33620;52.340;5.984;2023-11-21T12:48:37;10.10;96.64
47861;HTU21D;33620;52.340;5.984;2023-11-21T12:51:05;10.06;96.49
47861;HTU21D;33620;52.340;5.984;2023-11-21T12:53:32;10.03;96.62
47861;HTU21D;33620;52.340;5.984;2023-11-21T12:56:02;10.04;96.68
47861;HTU21D;33620;52.340;5.984;2023-11-21T12:58:28;10.00;96.68
47861;HTU21D;33620;52.340;5.984;2023-11-21T13:00:57;10.00;96.65
47861;HTU21D;33620;52.340;5.984;2023-11-21T13:03:25;9.99;96.75
47861;HTU21D;33620;52.340;5.984;2023-11-21T13:05:51;9.99;96.85
47861;HTU21D;33620;52.340;5.984;2023-11-21T13:08:20;9.95;96.70
47861;HTU21D;33620;52.340;5.984;2023-11-21T13:10:49;9.98;96.93
47861;HTU21D;33620;52.340;5.984;2023-11-21T13:13:15;9.96;96.62
47861;HTU21D;33620;52.340;5.984;2023-11-21T13:15:53;9.95;96.55
47861;HTU21D;33620;52.340;5.984;2023-11-21T13:18:21;9.98;96.57
47861;HTU21D;33620;52.340;5.984;2023-11-21T13:20:47;10.01;96.51
47861;HTU21D;33620;52.340;5.984;2023-11-21T13:23:13;10.04;96.49
47861;HTU21D;33620;52.340;5.984;2023-11-21T13:25:44;10.03;96.10
47861;HTU21D;33620;52.340;5.984;2023-11-21T13:28:14;10.04;96.16
47861;HTU21D;33620;52.340;5.984;2023-11-21T13:30:41;10.07;96.13
47861;HTU21D;33620;52.340;5.984;2023-11-21T13:33:07;10.06;95.96
47861;HTU21D;33620;52.340;5.984;2023-11-21T13:35:38;10.01;95.57
47861;HTU21D;33620;52.340;5.984;2023-11-21T13:38:11;9.99;95.26
47861;HTU21D;33620;52.340;5.984;2023-11-21T13:40:38;10.00;95.29
47861;HTU21D;33620;52.340;5.984;2023-11-21T13:43:12;9.99;95.23
47861;HTU21D;33620;52.340;5.984;2023-11-21T13:45:41;9.95;94.55
47861;HTU21D;33620;52.340;5.984;2023-11-21T13:48:07;9.93;94.56
47861;HTU21D;33620;52.340;5.984;2023-11-21T13:50:36;9.90;94.14
47861;HTU21D;33620;52.340;5.984;2023-11-21T13:53:03;9.86;93.83
47861;HTU21D;33620;52.340;5.984;2023-11-21T13:55:36;9.79;93.00
47861;HTU21D;33620;52.340;5.984;2023-11-21T13:58:02;9.77;93.20
47861;HTU21D;33620;52.340;5.984;2023-11-21T14:00:29;9.74;92.95
47861;HTU21D;33620;52.340;5.984;2023-11-21T14:03:11;9.72;92.82
47861;HTU21D;33620;52.340;5.984;2023-11-21T14:05:44;9.74;92.43
47861;HTU21D;33620;52.340;5.984;2023-11-21T14:08:12;9.69;92.01
47861;HTU21D;33620;52.340;5.984;2023-11-21T14:10:42;9.66;91.38
47861;HTU21D;33620;52.340;5.984;2023-11-21T14:13:14;9.60;90.65
47861;HTU21D;33620;52.340;5.984;2023-11-21T14:15:42;9.59;90.69
47861;HTU21D;33620;52.340;5.984;2023-11-21T14:18:10;9.54;90.24
47861;HTU21D;33620;52.340;5.984;2023-11-21T14:20:39;9.51;90.55
47861;HTU21D;33620;52.340;5.984;2023-11-21T14:23:05;9.51;90.63
47861;HTU21D;33620;52.340;5.984;2023-11-21T14:25:32;9.50;90.31
47861;HTU21D;33620;52.340;5.984;2023-11-21T14:27:58;9.47;89.93
47861;HTU21D;33620;52.340;5.984;2023-11-21T14:30:24;9.45;89.49
47861;HTU21D;33620;52.340;5.984;2023-11-21T14:32:51;9.48;89.62
47861;HTU21D;33620;52.340;5.984;2023-11-21T14:35:16;9.48;89.27
47861;HTU21D;33620;52.340;5.984;2023-11-21T14:37:43;9.44;88.67
47861;HTU21D;33620;52.340;5.984;2023-11-21T14:40:09;9.44;88.86
47861;HTU21D;33620;52.340;5.984;2023-11-21T14:42:34;9.41;88.26
47861;HTU21D;33620;52.340;5.984;2023-11-21T14:45:04;9.36;88.11
47861;HTU21D;33620;52.340;5.984;2023-11-21T14:47:32;9.39;88.47
47861;HTU21D;33620;52.340;5.984;2023-11-21T14:49:57;9.41;88.58
47861;HTU21D;33620;52.340;5.984;2023-11-21T14:52:25;9.41;88.80
47861;HTU21D;33620;52.340;5.984;2023-11-21T14:55:04;9.37;88.44
47861;HTU21D;33620;52.340;5.984;2023-11-21T14:57:47;9.41;88.89
47861;HTU21D;33620;52.340;5.984;2023-11-21T15:00:17;9.45;89.05
47861;HTU21D;33620;52.340;5.984;2023-11-21T15:03:03;9.42;88.77
47861;HTU21D;33620;52.340;5.984;2023-11-21T15:05:30;9.41;88.57
47861;HTU21D;33620;52.340;5.984;2023-11-21T15:07:56;9.42;88.83
47861;HTU21D;33620;52.340;5.984;2023-11-21T15:10:33;9.44;88.82
47861;HTU21D;33620;52.340;5.984;2023-11-21T15:13:12;9.41;88.42
47861;HTU21D;33620;52.340;5.984;2023-11-21T15:15:37;9.36;88.01
47861;HTU21D;33620;52.340;5.984;2023-11-21T15:18:05;9.37;88.19
47861;HTU21D;33620;52.340;5.984;2023-11-21T15:20:30;9.34;87.80
47861;HTU21D;33620;52.340;5.984;2023-11-21T15:22:56;9.36;88.05
47861;HTU21D;33620;52.340;5.984;2023-11-21T15:25:21;9.34;88.05
47861;HTU21D;33620;52.340;5.984;2023-11-21T15:27:47;9.38;88.09
47861;HTU21D;33620;52.340;5.984;2023-11-21T15:30:18;9.33;87.89
47861;HTU21D;33620;52.340;5.984;2023-11-21T15:32:48;9.32;87.20
47861;HTU21D;33620;52.340;5.984;2023-11-21T15:35:13;9.27;87.44
47861;HTU21D;33620;52.340;5.984;2023-11-21T15:37:40;9.21;87.15
47861;HTU21D;33620;52.340;5.984;2023-11-21T15:40:05;9.19;87.38
47861;HTU21D;33620;52.340;5.984;2023-11-21T15:42:33;9.19;87.36